Time;durP1;ratioP1;P1;durP2;ratioP2;P2;SDS_P1;SDS_P2;PMS_P1;PMS_P2;Temp;Humidity;BMP_temperature;BMP_pressure;BME280_temperature;BME280_humidity;BME280_pressure;Samples;Min_cycle;Max_cycle;Signal;HPM_P1;HPM_P2
2020/12/29 00:02:30;;;;;;;4.60;2.30;;;22.90;37.70;;;;;;6242785;27;82995;-61
2020/12/29 00:05:31;;;;;;;2.97;1.67;;;22.80;37.50;;;;;;6241134;27;81392;-61
2020/12/29 00:08:31;;;;;;;3.13;1.85;;;22.80;37.30;;;;;;6224064;27;80649;-61
2020/12/29 00:11:31;;;;;;;3.33;1.88;;;22.80;36.60;;;;;;6231333;27;83066;-61
2020/12/29 00:14:32;;;;;;;3.50;1.85;;;22.80;36.70;;;;;;6243030;27;80875;-60
2020/12/29 00:17:33;;;;;;;4.10;2.10;;;22.80;36.70;;;;;;6223675;28;80311;-61
2020/12/29 00:20:33;;;;;;;3.10;2.13;;;22.70;36.40;;;;;;6222298;27;81243;-60
2020/12/29 00:23:34;;;;;;;3.08;1.73;;;22.70;36.30;;;;;;6224462;27;81509;-62
2020/12/29 00:26:34;;;;;;;4.03;1.88;;;22.70;36.10;;;;;;6243553;27;80362;-61
2020/12/29 00:29:34;;;;;;;3.45;2.10;;;22.70;36.10;;;;;;6248013;27;80651;-62
2020/12/29 00:32:35;;;;;;;2.83;1.60;;;22.70;36.10;;;;;;6251580;27;80872;-62
2020/12/29 00:35:35;;;;;;;3.13;1.83;;;22.70;36.20;;;;;;6254093;27;80614;-61
2020/12/29 00:38:36;;;;;;;3.30;1.95;;;22.70;36.20;;;;;;6249794;27;80212;-61
2020/12/29 00:41:37;;;;;;;3.17;1.70;;;22.60;36.00;;;;;;6252416;27;83040;-62
2020/12/29 00:44:37;;;;;;;2.33;1.52;;;22.70;36.10;;;;;;6240910;27;80896;-61
2020/12/29 00:47:38;;;;;;;3.00;1.67;;;22.60;36.20;;;;;;6251869;27;80752;-61
2020/12/29 00:50:38;;;;;;;5.03;1.98;;;22.70;36.20;;;;;;6254214;27;80311;-62
2020/12/29 00:53:39;;;;;;;2.90;1.88;;;22.60;36.20;;;;;;6247208;27;83367;-62
2020/12/29 00:56:42;;;;;;;2.97;1.40;;;22.60;36.40;;;;;;6242035;27;80537;-61
2020/12/29 00:59:43;;;;;;;3.28;1.88;;;22.60;36.40;;;;;;6233056;28;80677;-61
2020/12/29 01:02:43;;;;;;;3.40;1.65;;;22.60;36.50;;;;;;6229373;28;83155;-61
2020/12/29 01:05:53;;;;;;;2.65;1.58;;;22.60;36.60;;;;;;6237496;27;82039;-61
2020/12/29 01:08:54;;;;;;;2.08;1.50;;;22.60;36.70;;;;;;6242126;27;81485;-61
2020/12/29 01:11:55;;;;;;;2.42;1.67;;;22.60;36.50;;;;;;6238369;27;80549;-61
2020/12/29 01:14:56;;;;;;;3.58;1.70;;;22.60;36.60;;;;;;6251589;27;81673;-61
2020/12/29 01:18:00;;;;;;;2.25;1.58;;;22.60;36.80;;;;;;6234037;28;81518;-63
2020/12/29 01:21:01;;;;;;;2.63;1.50;;;22.60;37.30;;;;;;6225926;28;80594;-62
2020/12/29 01:24:01;;;;;;;2.53;1.70;;;22.60;38.00;;;;;;6236614;27;81007;-61
2020/12/29 01:27:02;;;;;;;2.42;1.40;;;22.60;37.90;;;;;;6225584;27;81281;-61
2020/12/29 01:30:02;;;;;;;2.33;1.50;;;22.60;38.20;;;;;;6227451;28;81632;-60
2020/12/29 01:33:03;;;;;;;15.48;2.70;;;22.60;38.50;;;;;;6227573;28;80344;-61
2020/12/29 01:36:03;;;;;;;3.40;1.80;;;22.60;38.60;;;;;;6229315;27;80566;-60
2020/12/29 01:39:04;;;;;;;2.55;1.20;;;22.60;38.50;;;;;;6213577;28;80579;-62
2020/12/29 01:42:04;;;;;;;2.13;1.40;;;22.60;38.60;;;;;;6215576;28;81612;-61
2020/12/29 01:45:06;;;;;;;2.80;1.73;;;22.60;38.80;;;;;;6238078;27;80491;-61
2020/12/29 01:48:07;;;;;;;1.90;1.20;;;22.60;38.70;;;;;;6249868;27;82062;-62
2020/12/29 01:51:07;;;;;;;3.05;1.65;;;22.60;37.30;;;;;;6237410;27;81007;-61
2020/12/29 01:54:08;;;;;;;2.10;1.55;;;22.60;37.50;;;;;;6230248;27;80221;-61
2020/12/29 01:57:08;;;;;;;4.30;1.60;;;22.60;37.90;;;;;;6243693;27;80907;-61
2020/12/29 02:00:09;;;;;;;2.92;1.50;;;22.70;37.90;;;;;;6249947;27;81045;-61
2020/12/29 02:03:18;;;;;;;1.55;1.20;;;22.60;38.00;;;;;;6231236;27;80190;-61
2020/12/29 02:06:19;;;;;;;2.75;1.40;;;22.60;37.80;;;;;;6228877;27;81040;-61
2020/12/29 02:09:19;;;;;;;3.08;1.25;;;22.60;37.60;;;;;;6240923;27;81527;-61
2020/12/29 02:12:20;;;;;;;5.10;1.98;;;22.60;37.80;;;;;;6235617;27;80575;-61
2020/12/29 02:15:20;;;;;;;2.20;1.42;;;22.60;37.70;;;;;;6190150;28;81530;-61
2020/12/29 02:18:21;;;;;;;4.05;1.80;;;22.60;37.80;;;;;;6250356;27;80373;-60
2020/12/29 02:21:21;;;;;;;2.13;1.50;;;22.70;37.60;;;;;;6236277;27;83260;-60
2020/12/29 02:24:22;;;;;;;2.50;1.55;;;22.60;38.10;;;;;;6237575;27;81683;-60
2020/12/29 02:27:22;;;;;;;3.58;1.73;;;22.60;37.40;;;;;;6250762;27;80818;-60
2020/12/29 02:30:23;;;;;;;2.78;1.52;;;22.60;37.60;;;;;;6239431;27;81027;-61
2020/12/29 02:33:23;;;;;;;1.55;1.27;;;22.60;37.70;;;;;;6240907;27;80854;-61
2020/12/29 02:36:24;;;;;;;2.10;1.70;;;22.60;37.80;;;;;;6238674;27;80669;-59
2020/12/29 02:39:24;;;;;;;3.92;1.88;;;22.60;37.70;;;;;;6232160;27;80651;-61
2020/12/29 02:42:25;;;;;;;4.35;1.60;;;22.60;38.30;;;;;;6236877;27;80526;-61
2020/12/29 02:45:25;;;;;;;7.10;1.80;;;22.60;38.40;;;;;;6229354;27;80564;-61
2020/12/29 02:48:26;;;;;;;5.47;2.08;;;22.60;38.60;;;;;;6235335;27;81935;-61
2020/12/29 02:51:27;;;;;;;3.53;1.73;;;22.60;38.50;;;;;;6247845;27;80868;-61
2020/12/29 02:54:27;;;;;;;1.65;1.40;;;22.60;38.70;;;;;;6244810;27;81676;-61
2020/12/29 02:57:28;;;;;;;2.28;1.60;;;22.60;38.70;;;;;;6250504;27;83221;-61
2020/12/29 03:00:28;;;;;;;2.95;1.70;;;22.60;38.70;;;;;;6243593;27;80351;-61
2020/12/29 03:03:28;;;;;;;3.10;1.75;;;22.60;38.70;;;;;;6234568;27;86401;-61
2020/12/29 03:06:29;;;;;;;2.53;1.50;;;22.60;38.70;;;;;;6231431;27;80476;-61
2020/12/29 03:09:29;;;;;;;2.92;1.77;;;22.60;38.50;;;;;;6247114;27;80518;-61
2020/12/29 03:12:30;;;;;;;2.20;1.42;;;22.60;38.30;;;;;;6234749;27;82342;-61
2020/12/29 03:15:30;;;;;;;2.25;1.42;;;22.60;38.00;;;;;;6247207;27;81417;-61
2020/12/29 03:18:31;;;;;;;2.72;1.70;;;22.50;38.50;;;;;;6251672;27;80430;-61
2020/12/29 03:21:31;;;;;;;4.57;2.10;;;22.50;38.50;;;;;;6246304;27;81447;-61
2020/12/29 03:24:32;;;;;;;1.95;1.40;;;22.50;38.50;;;;;;6241998;27;87374;-61
2020/12/29 03:27:32;;;;;;;4.32;1.65;;;22.50;38.40;;;;;;6248481;27;80425;-61
2020/12/29 03:30:33;;;;;;;2.22;1.25;;;22.50;38.70;;;;;;6240181;27;80704;-61
2020/12/29 03:33:33;;;;;;;1.83;1.20;;;22.50;38.40;;;;;;6223974;27;80553;-61
2020/12/29 03:36:34;;;;;;;2.50;1.40;;;22.50;38.60;;;;;;6237307;27;80951;-61
2020/12/29 03:39:34;;;;;;;2.00;1.20;;;22.50;38.70;;;;;;6248433;27;81782;-61
2020/12/29 03:42:35;;;;;;;2.25;1.35;;;22.50;38.30;;;;;;6244150;27;81541;-61
2020/12/29 03:45:35;;;;;;;2.17;1.30;;;22.50;37.70;;;;;;6246610;27;80762;-61
2020/12/29 03:48:36;;;;;;;1.35;1.02;;;22.50;37.70;;;;;;6244116;27;80472;-61
2020/12/29 03:51:37;;;;;;;1.67;1.30;;;22.50;37.60;;;;;;6201854;27;80771;-61
2020/12/29 03:54:37;;;;;;;1.75;0.85;;;22.50;37.50;;;;;;6247051;27;80843;-61
2020/12/29 03:57:37;;;;;;;2.95;1.10;;;22.50;37.20;;;;;;6234962;27;80967;-61
2020/12/29 04:00:38;;;;;;;1.00;0.90;;;22.50;37.20;;;;;;6230435;27;81696;-60
2020/12/29 04:03:39;;;;;;;1.98;0.98;;;22.50;37.00;;;;;;6231097;27;80777;-60
2020/12/29 04:06:39;;;;;;;1.63;0.90;;;22.50;37.10;;;;;;6249895;27;81321;-61
2020/12/29 04:09:40;;;;;;;2.10;1.30;;;22.60;37.30;;;;;;6247246;27;81187;-61
2020/12/29 04:12:40;;;;;;;1.42;0.82;;;22.50;37.10;;;;;;6235030;27;82704;-60
2020/12/29 04:15:41;;;;;;;2.05;1.30;;;22.50;36.60;;;;;;6228080;27;80576;-61
2020/12/29 04:18:42;;;;;;;1.50;0.93;;;22.60;37.10;;;;;;6237836;27;87106;-61
2020/12/29 04:21:43;;;;;;;1.40;0.80;;;22.60;36.40;;;;;;6228729;27;81477;-60
2020/12/29 04:24:43;;;;;;;0.80;0.60;;;22.60;36.30;;;;;;6234940;27;80388;-61
2020/12/29 04:27:44;;;;;;;0.57;0.55;;;22.60;36.40;;;;;;6238606;27;80571;-60
2020/12/29 04:30:44;;;;;;;1.88;0.60;;;22.70;36.70;;;;;;6230340;27;80391;-61
2020/12/29 04:33:45;;;;;;;0.85;0.63;;;22.70;35.90;;;;;;6215410;28;81386;-60
2020/12/29 04:36:45;;;;;;;2.45;0.70;;;22.70;35.60;;;;;;6233618;27;80951;-61
2020/12/29 04:39:46;;;;;;;0.70;0.63;;;22.70;35.70;;;;;;6236290;27;80796;-61
2020/12/29 04:42:46;;;;;;;1.25;0.70;;;22.70;35.50;;;;;;6246746;27;80832;-63
2020/12/29 04:45:47;;;;;;;0.50;0.47;;;22.70;35.60;;;;;;6239212;27;81151;-62
2020/12/29 04:48:47;;;;;;;5.65;0.50;;;22.70;35.70;;;;;;6246862;27;80722;-61
2020/12/29 04:51:48;;;;;;;0.82;0.70;;;22.70;35.20;;;;;;6243335;27;80447;-62
2020/12/29 04:54:48;;;;;;;0.70;0.60;;;22.70;35.30;;;;;;6218125;27;80680;-61
2020/12/29 04:57:49;;;;;;;0.80;0.40;;;22.80;35.10;;;;;;6221992;28;80521;-62
2020/12/29 05:00:49;;;;;;;0.82;0.47;;;22.80;35.10;;;;;;6236424;28;81077;-62
2020/12/29 05:03:50;;;;;;;1.02;0.65;;;22.80;35.00;;;;;;6238411;27;80791;-61
2020/12/29 05:06:50;;;;;;;0.93;0.47;;;22.80;35.00;;;;;;6249840;27;80850;-62
2020/12/29 05:09:51;;;;;;;0.50;0.47;;;22.80;35.00;;;;;;6244038;27;80688;-62
2020/12/29 05:12:51;;;;;;;0.65;0.50;;;22.80;35.00;;;;;;6228355;28;80910;-62
2020/12/29 05:15:52;;;;;;;0.88;0.45;;;22.80;34.90;;;;;;6220547;28;80955;-62
2020/12/29 05:18:52;;;;;;;0.60;0.55;;;22.90;35.00;;;;;;6238598;27;80822;-61
2020/12/29 05:21:53;;;;;;;0.68;0.40;;;22.90;35.00;;;;;;6252987;27;80575;-62
2020/12/29 05:24:53;;;;;;;1.38;0.60;;;22.90;34.80;;;;;;6247772;27;80858;-62
2020/12/29 05:27:54;;;;;;;0.85;0.63;;;22.90;34.80;;;;;;6248455;27;82603;-62
2020/12/29 05:30:54;;;;;;;0.68;0.47;;;22.90;35.40;;;;;;6228539;27;80941;-62
2020/12/29 05:33:55;;;;;;;0.88;0.50;;;22.90;36.00;;;;;;6220222;28;80636;-61
2020/12/29 05:36:55;;;;;;;1.05;0.60;;;22.80;36.90;;;;;;6237307;27;80701;-62
2020/12/29 05:39:56;;;;;;;1.02;0.57;;;22.70;37.70;;;;;;6230071;27;80661;-62
2020/12/29 05:42:56;;;;;;;6.28;0.63;;;22.70;38.30;;;;;;6231898;27;80357;-60
2020/12/29 05:46:15;;;;;;;1.42;0.60;;;22.60;38.60;;;;;;6245749;27;80548;-61
2020/12/29 05:49:16;;;;;;;1.83;0.70;;;22.70;39.60;;;;;;6246437;27;80837;-62
2020/12/29 05:52:16;;;;;;;5.57;0.93;;;22.70;39.90;;;;;;6237708;27;81277;-61
2020/12/29 05:55:17;;;;;;;1.92;0.90;;;22.70;40.10;;;;;;6224567;27;80578;-62
2020/12/29 05:58:18;;;;;;;2.78;1.20;;;22.70;40.50;;;;;;6227757;27;82716;-62
2020/12/29 06:01:19;;;;;;;2.22;1.10;;;22.70;40.70;;;;;;6221406;28;80607;-61
2020/12/29 06:04:19;;;;;;;1.90;1.10;;;22.80;41.40;;;;;;6245073;27;80988;-61
2020/12/29 06:07:20;;;;;;;3.65;1.75;;;22.80;41.70;;;;;;6259927;27;80720;-61
2020/12/29 06:10:20;;;;;;;2.92;1.20;;;22.90;42.00;;;;;;6249127;27;80693;-62
2020/12/29 06:13:21;;;;;;;4.60;1.25;;;22.90;41.90;;;;;;6250330;27;80436;-62
2020/12/29 06:16:21;;;;;;;6.25;1.40;;;22.90;42.20;;;;;;6253204;27;83353;-62
2020/12/29 06:19:22;;;;;;;2.10;1.08;;;22.90;42.00;;;;;;6249563;27;80535;-62
2020/12/29 06:22:22;;;;;;;1.83;0.95;;;22.90;41.70;;;;;;6248343;27;80712;-61
2020/12/29 06:25:23;;;;;;;2.30;1.00;;;22.90;41.30;;;;;;6239340;27;80583;-62
2020/12/29 06:28:23;;;;;;;2.55;1.33;;;22.80;41.30;;;;;;6245372;27;80532;-61
2020/12/29 06:31:24;;;;;;;4.97;0.80;;;22.90;41.50;;;;;;6246568;27;80732;-63
2020/12/29 06:34:24;;;;;;;3.30;1.10;;;22.90;41.60;;;;;;6246992;27;81712;-63
2020/12/29 06:37:25;;;;;;;3.75;0.93;;;22.90;41.50;;;;;;6237341;27;80506;-62
2020/12/29 06:40:26;;;;;;;3.78;1.15;;;22.90;41.30;;;;;;6247520;27;81839;-62
2020/12/29 06:43:26;;;;;;;2.33;1.02;;;22.90;41.50;;;;;;6250331;27;81453;-62
2020/12/29 06:46:27;;;;;;;1.92;1.10;;;22.90;41.70;;;;;;6236789;27;80638;-62
2020/12/29 06:49:27;;;;;;;1.90;0.90;;;23.00;42.00;;;;;;6251379;27;81237;-62
2020/12/29 06:52:28;;;;;;;2.13;1.10;;;23.00;42.30;;;;;;6230171;27;81473;-61
2020/12/29 06:55:29;;;;;;;2.50;1.20;;;23.00;42.20;;;;;;6225509;27;83321;-62
2020/12/29 06:58:30;;;;;;;1.95;1.25;;;23.00;42.00;;;;;;6245093;27;81555;-61
2020/12/29 07:01:30;;;;;;;2.95;1.20;;;23.00;41.90;;;;;;6240912;27;81162;-61
2020/12/29 07:04:31;;;;;;;199.15;68.93;;;23.00;41.90;;;;;;6250024;27;81358;-62
2020/12/29 07:07:32;;;;;;;322.50;114.40;;;23.00;42.30;;;;;;6228851;27;83162;-62
2020/12/29 07:10:33;;;;;;;462.35;159.65;;;22.90;42.50;;;;;;6219494;27;86535;-61
2020/12/29 07:13:33;;;;;;;526.42;199.25;;;23.00;42.10;;;;;;6221616;28;86165;-62
2020/12/29 07:16:34;;;;;;;484.88;169.60;;;22.90;41.90;;;;;;6217487;27;86960;-62
2020/12/29 07:19:34;;;;;;;437.20;151.15;;;22.90;41.80;;;;;;6214411;27;86324;-61
2020/12/29 07:22:35;;;;;;;419.00;140.45;;;22.90;41.90;;;;;;6218640;27;86216;-61
2020/12/29 07:25:35;;;;;;;355.27;124.70;;;22.90;42.10;;;;;;6239981;27;86723;-61
2020/12/29 07:28:36;;;;;;;327.60;113.47;;;22.90;41.60;;;;;;6214834;27;86353;-62
2020/12/29 07:31:36;;;;;;;254.88;88.60;;;22.90;41.60;;;;;;6238995;27;86097;-62
2020/12/29 07:34:37;;;;;;;231.32;82.18;;;22.90;40.80;;;;;;6246353;27;86263;-62
2020/12/29 07:37:37;;;;;;;208.88;72.55;;;22.80;41.20;;;;;;6218232;27;83738;-62
2020/12/29 07:40:38;;;;;;;198.10;72.55;;;22.80;41.30;;;;;;6219986;28;83172;-61
2020/12/29 07:43:38;;;;;;;191.35;64.93;;;22.80;41.20;;;;;;6218833;27;83021;-61
2020/12/29 07:46:39;;;;;;;160.70;57.78;;;22.90;41.20;;;;;;6243345;27;83194;-62
2020/12/29 07:49:39;;;;;;;152.93;53.42;;;22.90;41.30;;;;;;6225581;28;83480;-62
2020/12/29 07:52:40;;;;;;;144.50;48.60;;;22.90;41.70;;;;;;6227251;27;83093;-62
2020/12/29 07:55:40;;;;;;;130.75;44.55;;;23.00;42.70;;;;;;6219996;27;89933;-59
2020/12/29 07:58:41;;;;;;;81.38;29.15;;;23.00;41.20;;;;;;6225546;27;84109;-61
2020/12/29 08:01:41;;;;;;;56.10;20.15;;;22.80;39.20;;;;;;6240911;27;91488;-61
2020/12/29 08:04:41;;;;;;;48.63;17.75;;;22.60;37.70;;;;;;6245758;27;83624;-62
2020/12/29 08:07:42;;;;;;;48.15;15.80;;;22.50;38.70;;;;;;6215519;27;83229;-62
2020/12/29 08:10:43;;;;;;;39.42;13.88;;;22.50;39.60;;;;;;6246821;27;83582;-62
2020/12/29 08:13:43;;;;;;;27.42;11.38;;;22.50;40.50;;;;;;6229089;27;82984;-68
2020/12/29 08:16:44;;;;;;;25.25;9.60;;;22.50;38.80;;;;;;6254592;27;84138;-61
2020/12/29 08:19:44;;;;;;;27.58;10.10;;;22.60;38.40;;;;;;6247116;27;81844;-61
2020/12/29 08:22:45;;;;;;;22.92;7.97;;;22.70;39.90;;;;;;6223140;27;83002;-63
2020/12/29 08:25:45;;;;;;;20.40;6.97;;;22.60;37.20;;;;;;6214892;28;82664;-61
2020/12/29 08:28:46;;;;;;;17.65;6.72;;;22.60;38.20;;;;;;6240498;27;80944;-61
2020/12/29 08:31:46;;;;;;;16.08;5.97;;;22.60;37.60;;;;;;6237557;27;80520;-61
2020/12/29 08:34:47;;;;;;;15.13;5.10;;;22.60;38.60;;;;;;6236493;27;80433;-61
2020/12/29 08:37:48;;;;;;;11.15;5.07;;;22.70;38.30;;;;;;6248001;27;80706;-61
2020/12/29 08:40:48;;;;;;;8.10;3.88;;;22.80;37.50;;;;;;6230960;27;81864;-61
2020/12/29 08:43:49;;;;;;;9.18;3.40;;;22.80;36.20;;;;;;6241320;27;81755;-62
2020/12/29 08:46:49;;;;;;;8.77;3.63;;;22.80;36.00;;;;;;6220409;27;80653;-61
2020/12/29 08:49:50;;;;;;;8.90;2.33;;;22.70;34.80;;;;;;6242735;27;81703;-59
2020/12/29 08:52:50;;;;;;;4.95;2.35;;;22.60;34.10;;;;;;6247641;27;80908;-61
2020/12/29 08:55:51;;;;;;;3.13;1.90;;;22.70;33.60;;;;;;6252611;27;83547;-60
2020/12/29 08:58:51;;;;;;;2.85;1.60;;;22.60;32.50;;;;;;6249684;27;80436;-60
2020/12/29 09:01:52;;;;;;;5.10;1.77;;;22.70;32.60;;;;;;6225763;27;80786;-60
2020/12/29 09:04:52;;;;;;;2.88;1.48;;;22.70;32.00;;;;;;6247848;27;80568;-61
2020/12/29 09:07:53;;;;;;;2.22;1.30;;;22.70;32.40;;;;;;6230668;27;81389;-60
2020/12/29 09:10:53;;;;;;;2.80;1.35;;;22.90;32.50;;;;;;6228118;28;81680;-61
2020/12/29 09:13:54;;;;;;;4.43;1.40;;;22.90;32.30;;;;;;6233272;27;82780;-60
2020/12/29 09:16:54;;;;;;;2.13;1.10;;;23.00;32.00;;;;;;6232346;28;81426;-60
2020/12/29 09:19:55;;;;;;;1.48;1.00;;;23.00;31.20;;;;;;6230287;27;80902;-60
2020/12/29 09:22:56;;;;;;;4.15;0.80;;;23.00;30.90;;;;;;6223675;27;80698;-61
2020/12/29 09:25:56;;;;;;;3.13;1.08;;;22.90;30.50;;;;;;6246726;27;82002;-59
2020/12/29 09:28:56;;;;;;;4.05;1.85;;;23.00;30.80;;;;;;6249736;27;80250;-61
2020/12/29 09:31:57;;;;;;;2.38;0.95;;;23.00;30.20;;;;;;6221869;27;81130;-60
2020/12/29 09:35:25;;;;;;;2.95;1.08;;;23.10;30.10;;;;;;6242432;27;80836;-60
2020/12/29 09:38:18;;;;;;;1.80;0.90;;;23.10;29.90;;;;;;6244403;27;87624;-53
2020/12/29 09:41:19;;;;;;;3.33;1.38;;;23.10;29.80;;;;;;6247372;27;80606;-59
2020/12/29 09:44:19;;;;;;;2.95;1.17;;;23.20;29.50;;;;;;6223630;27;80873;-58
2020/12/29 09:47:20;;;;;;;2.40;1.02;;;23.30;28.70;;;;;;6250791;27;80586;-61
2020/12/29 09:50:20;;;;;;;2.50;0.95;;;23.40;28.40;;;;;;6245054;27;81940;-61
2020/12/29 09:53:21;;;;;;;1.88;1.00;;;23.40;28.30;;;;;;6251203;27;80391;-60
2020/12/29 09:56:22;;;;;;;1.92;0.80;;;23.50;27.90;;;;;;6246550;27;81806;-60
2020/12/29 09:59:22;;;;;;;3.80;1.15;;;23.70;27.60;;;;;;6224111;28;81010;-60
2020/12/29 10:02:23;;;;;;;11.30;1.58;;;23.70;27.60;;;;;;6223122;27;84495;-62
2020/12/29 10:05:23;;;;;;;16.92;2.00;;;23.80;27.80;;;;;;6242019;27;80759;-60
2020/12/29 10:08:24;;;;;;;16.08;1.92;;;23.90;27.70;;;;;;6250281;27;80930;-58
2020/12/29 10:11:24;;;;;;;42.50;3.75;;;24.00;27.60;;;;;;6231186;27;80428;-63
2020/12/29 10:14:26;;;;;;;38.63;3.28;;;24.00;28.20;;;;;;6251116;27;83093;-61
2020/12/29 10:17:27;;;;;;;33.55;3.03;;;24.10;28.60;;;;;;6244149;27;81066;-60
2020/12/29 10:20:27;;;;;;;14.10;1.92;;;24.20;28.50;;;;;;6242830;27;80622;-60
2020/12/29 10:23:28;;;;;;;22.60;3.00;;;24.20;27.60;;;;;;6250662;27;80668;-58
2020/12/29 10:26:28;;;;;;;12.45;1.65;;;24.20;27.70;;;;;;6222982;27;81313;-61
2020/12/29 10:29:29;;;;;;;12.10;1.67;;;24.20;27.50;;;;;;6227276;28;80675;-60
2020/12/29 10:32:29;;;;;;;3.35;1.45;;;24.30;27.50;;;;;;6227409;27;80357;-60
2020/12/29 10:35:30;;;;;;;9.00;1.58;;;24.30;27.60;;;;;;6246479;27;81085;-62
2020/12/29 10:38:31;;;;;;;10.13;1.23;;;24.30;27.50;;;;;;6244127;27;80517;-61
2020/12/29 10:41:31;;;;;;;5.57;0.90;;;24.30;27.50;;;;;;6249908;27;81194;-61
2020/12/29 10:44:32;;;;;;;10.73;2.35;;;24.30;27.80;;;;;;6225567;28;81683;-60
2020/12/29 10:47:32;;;;;;;1.42;1.00;;;24.30;28.10;;;;;;6228801;27;82528;-60
2020/12/29 10:50:33;;;;;;;1.67;1.10;;;24.30;28.00;;;;;;6249680;27;80806;-61
2020/12/29 10:53:34;;;;;;;3.10;0.88;;;24.30;28.10;;;;;;6222895;28;81547;-60
2020/12/29 10:56:35;;;;;;;2.75;1.08;;;24.30;28.20;;;;;;6224276;28;81031;-60
2020/12/29 10:59:36;;;;;;;3.22;1.73;;;24.40;28.40;;;;;;6244056;27;81633;-60
2020/12/29 11:02:36;;;;;;;3.17;1.40;;;24.50;29.40;;;;;;6249894;27;80608;-60
2020/12/29 11:05:37;;;;;;;2.83;1.10;;;24.60;28.70;;;;;;6248513;27;80608;-60
2020/12/29 11:08:37;;;;;;;3.63;1.48;;;24.60;28.70;;;;;;6245838;27;82975;-60
2020/12/29 11:11:38;;;;;;;2.13;1.27;;;24.60;28.60;;;;;;6245514;27;81738;-60
2020/12/29 11:14:39;;;;;;;2.83;1.50;;;24.60;28.60;;;;;;6226748;27;82456;-60
2020/12/29 11:17:39;;;;;;;2.50;1.30;;;24.70;29.00;;;;;;6243625;27;83443;-60
2020/12/29 11:20:40;;;;;;;2.65;1.30;;;24.70;29.20;;;;;;6224848;27;81386;-61
2020/12/29 11:23:40;;;;;;;2.63;1.23;;;24.80;29.00;;;;;;6247570;27;80810;-60
2020/12/29 11:26:41;;;;;;;1.80;1.20;;;24.80;29.40;;;;;;6250258;27;80577;-60
2020/12/29 11:29:41;;;;;;;1.88;0.95;;;24.80;29.10;;;;;;6244785;27;81126;-60
2020/12/29 11:32:42;;;;;;;3.55;1.25;;;24.80;28.60;;;;;;6226035;27;83143;-60
2020/12/29 11:35:42;;;;;;;7.05;1.30;;;24.80;29.00;;;;;;6217155;27;80900;-61
2020/12/29 11:38:43;;;;;;;1.50;0.80;;;24.70;28.60;;;;;;6207323;28;81349;-62
2020/12/29 11:41:43;;;;;;;1.92;1.52;;;24.80;28.70;;;;;;6205167;27;81572;-61
2020/12/29 11:44:44;;;;;;;1.80;1.02;;;24.80;29.00;;;;;;6258090;27;80718;-60
2020/12/29 11:47:45;;;;;;;2.75;0.77;;;24.90;29.80;;;;;;6229055;27;82475;-60
2020/12/29 11:50:45;;;;;;;8.45;1.48;;;24.90;29.00;;;;;;6225874;27;80340;-60
2020/12/29 11:53:46;;;;;;;4.18;1.20;;;24.90;29.00;;;;;;6227397;27;80861;-61
2020/12/29 11:56:46;;;;;;;4.78;1.30;;;24.90;28.80;;;;;;6227764;27;80617;-59
2020/12/29 11:59:47;;;;;;;6.15;1.17;;;24.90;28.80;;;;;;6216212;27;81012;-60
2020/12/29 12:02:47;;;;;;;7.32;1.40;;;24.80;28.60;;;;;;6226196;28;80474;-59
2020/12/29 12:05:48;;;;;;;1.95;1.27;;;24.80;28.60;;;;;;6222947;27;82989;-62
2020/12/29 12:08:48;;;;;;;3.67;1.55;;;24.70;28.50;;;;;;6222893;27;81821;-57
2020/12/29 12:11:49;;;;;;;1.55;1.00;;;24.80;29.00;;;;;;6226090;27;80972;-57
2020/12/29 12:14:50;;;;;;;5.65;1.30;;;24.80;28.90;;;;;;6232281;27;80849;-57
2020/12/29 12:17:50;;;;;;;1.50;1.00;;;24.90;29.30;;;;;;6217338;27;80363;-58
2020/12/29 12:20:51;;;;;;;3.58;1.30;;;24.90;29.40;;;;;;6257936;27;80540;-57
2020/12/29 12:23:51;;;;;;;2.35;1.35;;;24.90;28.60;;;;;;6249926;27;80696;-57
2020/12/29 12:26:52;;;;;;;2.80;1.30;;;24.90;28.10;;;;;;6251146;27;80537;-57
2020/12/29 12:29:52;;;;;;;3.65;1.10;;;24.80;28.10;;;;;;6228078;27;80748;-57
2020/12/29 12:32:53;;;;;;;2.47;1.55;;;24.80;28.10;;;;;;6227346;28;81277;-62
2020/12/29 12:35:53;;;;;;;2.45;1.42;;;24.80;28.10;;;;;;6225564;28;81599;-58
2020/12/29 12:38:54;;;;;;;3.08;1.75;;;24.80;27.60;;;;;;6244084;27;80755;-61
2020/12/29 12:41:54;;;;;;;1.85;1.08;;;24.80;27.90;;;;;;6228226;27;82190;-60
2020/12/29 12:44:55;;;;;;;3.60;2.22;;;24.80;28.10;;;;;;6229347;27;81069;-60
2020/12/29 12:47:55;;;;;;;1.58;1.10;;;24.80;27.80;;;;;;6223249;28;82615;-57
2020/12/29 12:50:56;;;;;;;1.83;1.05;;;24.70;27.80;;;;;;6240188;27;80640;-56
2020/12/29 12:53:56;;;;;;;2.65;1.13;;;24.70;27.50;;;;;;6253756;27;80709;-53
2020/12/29 12:56:57;;;;;;;8.75;1.30;;;24.60;27.50;;;;;;6242245;27;81459;-54
2020/12/29 12:59:58;;;;;;;2.03;1.00;;;24.50;26.70;;;;;;6247935;27;81769;-57
2020/12/29 13:02:58;;;;;;;2.00;1.23;;;24.50;26.30;;;;;;6225500;27;88301;-58
2020/12/29 13:05:59;;;;;;;1.73;1.00;;;24.40;26.90;;;;;;6222248;27;81915;-55
2020/12/29 13:08:59;;;;;;;1.95;1.20;;;24.40;27.00;;;;;;6247425;27;81567;-58
2020/12/29 13:12:00;;;;;;;1.92;1.15;;;24.40;27.20;;;;;;6230920;27;81758;-58
2020/12/29 13:15:00;;;;;;;3.55;1.25;;;24.40;27.00;;;;;;6232936;27;80713;-56
2020/12/29 13:18:01;;;;;;;2.22;1.23;;;24.30;26.90;;;;;;6248182;27;81022;-59
2020/12/29 13:21:01;;;;;;;2.53;1.17;;;24.30;26.70;;;;;;6252010;27;80298;-59
2020/12/29 13:24:02;;;;;;;1.80;1.05;;;24.10;26.50;;;;;;6249353;27;80951;-60
2020/12/29 13:27:02;;;;;;;3.60;1.20;;;24.00;26.80;;;;;;6225991;27;80847;-59
2020/12/29 13:30:03;;;;;;;2.40;1.30;;;23.90;27.20;;;;;;6223639;27;80486;-58
2020/12/29 13:33:03;;;;;;;3.08;1.50;;;23.70;26.70;;;;;;6242397;27;81028;-59
2020/12/29 13:36:05;;;;;;;2.63;1.45;;;23.60;27.20;;;;;;6224806;27;81508;-60
2020/12/29 13:39:05;;;;;;;2.90;1.23;;;23.50;27.30;;;;;;6247447;27;81195;-62
2020/12/29 13:42:06;;;;;;;2.40;1.40;;;23.50;28.40;;;;;;6249574;27;80701;-60
2020/12/29 13:45:06;;;;;;;2.55;1.50;;;23.70;29.10;;;;;;6232617;27;80640;-60
2020/12/29 13:48:07;;;;;;;1.98;1.55;;;23.70;29.50;;;;;;6225196;27;81973;-59
2020/12/29 13:51:07;;;;;;;3.00;1.65;;;23.70;29.90;;;;;;6260333;27;81315;-60
2020/12/29 13:54:08;;;;;;;3.45;1.40;;;23.70;30.20;;;;;;6242149;27;80255;-61
2020/12/29 13:57:08;;;;;;;2.20;1.45;;;23.70;30.40;;;;;;6230826;27;80952;-59
2020/12/29 14:00:09;;;;;;;2.55;1.10;;;23.70;31.00;;;;;;6226486;27;80372;-59
2020/12/29 14:03:13;;;;;;;3.05;1.40;;;23.70;31.30;;;;;;6248111;27;81143;-58
2020/12/29 14:06:14;;;;;;;2.17;1.25;;;23.70;31.50;;;;;;6237916;27;81364;-60
2020/12/29 14:09:14;;;;;;;2.25;1.10;;;23.70;32.10;;;;;;6240231;27;80355;-61
2020/12/29 14:12:15;;;;;;;2.33;1.20;;;23.60;32.20;;;;;;6248769;27;81281;-57
2020/12/29 14:15:16;;;;;;;2.88;1.38;;;23.50;32.50;;;;;;6253653;27;80749;-54
2020/12/29 14:18:16;;;;;;;2.55;1.25;;;23.50;32.90;;;;;;6248192;27;80794;-52
2020/12/29 14:21:17;;;;;;;2.28;1.20;;;23.50;33.30;;;;;;6217228;27;80745;-58
2020/12/29 14:24:17;;;;;;;2.15;1.00;;;23.50;33.30;;;;;;6225463;28;83251;-57
2020/12/29 14:27:18;;;;;;;1.95;1.10;;;23.50;33.90;;;;;;6243989;27;80183;-58
2020/12/29 14:30:18;;;;;;;2.20;1.27;;;23.50;34.00;;;;;;6249754;27;81343;-56
2020/12/29 14:33:21;;;;;;;1.98;1.20;;;23.60;34.40;;;;;;6247689;27;80568;-58
2020/12/29 14:36:21;;;;;;;3.22;1.40;;;23.60;35.10;;;;;;6251001;27;80294;-57
2020/12/29 14:39:23;;;;;;;2.17;1.38;;;23.70;35.50;;;;;;6224468;27;80596;-59
2020/12/29 14:42:24;;;;;;;2.30;1.45;;;23.70;36.40;;;;;;6247987;27;80753;-54
2020/12/29 14:45:24;;;;;;;2.65;1.23;;;23.70;37.30;;;;;;6241807;27;80530;-59
2020/12/29 14:48:25;;;;;;;1.77;1.20;;;23.70;37.60;;;;;;6235760;27;80545;-56
2020/12/29 14:51:25;;;;;;;3.17;1.88;;;23.70;37.80;;;;;;6245820;27;80914;-57
2020/12/29 14:54:26;;;;;;;1.80;1.20;;;23.70;38.10;;;;;;6237106;27;83149;-56
2020/12/29 14:57:26;;;;;;;10.05;1.52;;;23.70;37.70;;;;;;6231505;27;80580;-59
2020/12/29 15:00:27;;;;;;;5.05;1.50;;;23.70;38.00;;;;;;6244174;27;80683;-57
2020/12/29 15:03:27;;;;;;;3.85;1.75;;;23.70;38.30;;;;;;6242939;27;80890;-58
2020/12/29 15:06:28;;;;;;;4.13;1.55;;;23.70;38.50;;;;;;6243305;27;81088;-58
2020/12/29 15:09:28;;;;;;;2.83;1.52;;;23.70;38.90;;;;;;6198838;27;80522;-57
2020/12/29 15:12:29;;;;;;;1.90;1.25;;;23.70;38.80;;;;;;6246448;27;82136;-58
2020/12/29 15:15:29;;;;;;;2.92;1.40;;;23.70;38.80;;;;;;6231889;27;81359;-57
2020/12/29 15:18:30;;;;;;;3.75;1.70;;;23.70;38.80;;;;;;6223499;27;81713;-57
2020/12/29 15:21:30;;;;;;;5.57;1.45;;;23.70;39.00;;;;;;6221055;28;83437;-56
2020/12/29 15:24:31;;;;;;;3.53;1.50;;;23.70;39.20;;;;;;6233857;28;88210;-53
2020/12/29 15:27:31;;;;;;;3.70;1.75;;;23.70;38.90;;;;;;6244159;27;80696;-55
2020/12/29 15:30:32;;;;;;;3.13;1.55;;;23.70;38.90;;;;;;6250136;27;80855;-55
2020/12/29 15:33:33;;;;;;;4.85;1.95;;;23.70;39.00;;;;;;6244384;27;80588;-56
2020/12/29 15:36:34;;;;;;;3.72;1.73;;;23.80;39.70;;;;;;6229955;28;81860;-54